CheckWX is a tool to help pilots better visualize weather data.  It is not intended as a substitute for an official pre-flight weather briefing.

20:24:55 UTC

KDPA TAF
Dupage Airport
Chicago/West Chicago, Illinois, USA
KDPA 211728Z 2118/2218 22015G25KT P6SM VCSH SCT025 OVC050 FM212200 21015G25KT 5SM -SHRA BR VCTS SCT025 OVC040CB TEMPO 2122/2201 3SM SHRA BR BKN025 FM220200 20012G22KT P6SM VCSH SCT020 BKN035 FM220800 19012G20KT 4SM SHRA BR VCTS BKN025 OVC040CB PROB30 2209/2214 2SM +TSRA BR BKN008 OVC015CB FM221500 22014G24KT 5SM SHRA BR BKN020 OVC035

Sep-21@
18:00 UTC

Sep-21 @ 18:00 UTC

Sep-21@
22:00 UTC

Sep-21 @ 22:00 UTC

KDPA 211728Z 2118/2218 22015G25KT P6SM VCSH SCT025 OVC050
Wind
  • 220° at 15 KTS
  • {Gusting to 25 KTS
Cloud Levels
  • Scattered at 2,500' AGL
  • Overcast at 5,000' AGL

Sep-21@
22:00 UTC

Sep-21 @ 22:00 UTC

Sep-22@
01:00 UTC

Sep-22 @ 01:00 UTC

TEMPO 2122/2201 3SM SHRA BR BKN025

Temporary

Temporary Changes expected for less than half the time period

Conditions
Rain, Mist
Cloud Levels
  • Broken at 2,500' AGL

Sep-21@
22:00 UTC

Sep-21 @ 22:00 UTC

Sep-22@
02:00 UTC

Sep-22 @ 02:00 UTC

FM212200 21015G25KT 5SM -SHRA BR VCTS SCT025 OVC040CB

From

From Standard forecast or significant change

Wind
  • 210° at 15 KTS
  • {Gusting to 25 KTS
Conditions
Light Rain, Mist, Area Thunderstorm
Cloud Levels
  • Scattered at 2,500' AGL
  • Overcast at 4,000' AGL

Sep-22@
02:00 UTC

Sep-22 @ 02:00 UTC

Sep-22@
08:00 UTC

Sep-22 @ 08:00 UTC

FM220200 20012G22KT P6SM VCSH SCT020 BKN035

From

From Standard forecast or significant change

Wind
  • 200° at 12 KTS
  • {Gusting to 22 KTS
Cloud Levels
  • Scattered at 2,000' AGL
  • Broken at 3,500' AGL

Sep-22@
08:00 UTC

Sep-22 @ 08:00 UTC

Sep-22@
15:00 UTC

Sep-22 @ 15:00 UTC

FM220800 19012G20KT 4SM SHRA BR VCTS BKN025 OVC040CB

From

From Standard forecast or significant change

Wind
  • 190° at 12 KTS
  • {Gusting to 20 KTS
Conditions
Rain, Mist, Area Thunderstorm
Cloud Levels
  • Broken at 2,500' AGL
  • Overcast at 4,000' AGL

Sep-22@
09:00 UTC

Sep-22 @ 09:00 UTC

Sep-22@
14:00 UTC

Sep-22 @ 14:00 UTC

PROB30 2209/2214 2SM +TSRA BR BKN008 OVC015CB

Probable - 30% Likelihood

Probable - 30% Likelihood during this time.

Conditions
Heavy Thunderstorm, Heavy Rain, Mist
Cloud Levels
  • Broken at 800' AGL
  • Overcast at 1,500' AGL

Sep-22@
15:00 UTC

Sep-22 @ 15:00 UTC

Sep-22@
18:00 UTC

Sep-22 @ 18:00 UTC

FM221500 22014G24KT 5SM SHRA BR BKN020 OVC035

From

From Standard forecast or significant change

Wind
  • 220° at 14 KTS
  • {Gusting to 24 KTS
Conditions
Rain, Mist
Cloud Levels
  • Broken at 2,000' AGL
  • Overcast at 3,500' AGL